sensor_id;sensor_type;location;lat;lon;timestamp;P1;durP1;ratioP1;P2;durP2;ratioP2
23555;SDS011;11956;53.184;8.578;2023-09-18T00:02:39;14.57;;;13.00;;
23555;SDS011;11956;53.184;8.578;2023-09-18T00:05:40;16.58;;;14.90;;
23555;SDS011;11956;53.184;8.578;2023-09-18T00:08:40;17.75;;;15.70;;
23555;SDS011;11956;53.184;8.578;2023-09-18T00:11:41;15.75;;;14.15;;
23555;SDS011;11956;53.184;8.578;2023-09-18T00:14:42;15.13;;;13.52;;
23555;SDS011;11956;53.184;8.578;2023-09-18T00:17:43;16.90;;;15.20;;
23555;SDS011;11956;53.184;8.578;2023-09-18T00:20:44;20.63;;;17.45;;
23555;SDS011;11956;53.184;8.578;2023-09-18T00:23:49;20.40;;;17.02;;
23555;SDS011;11956;53.184;8.578;2023-09-18T00:26:50;19.35;;;17.35;;
23555;SDS011;11956;53.184;8.578;2023-09-18T00:29:53;17.00;;;15.23;;
23555;SDS011;11956;53.184;8.578;2023-09-18T00:32:54;17.45;;;15.25;;
23555;SDS011;11956;53.184;8.578;2023-09-18T00:35:55;17.40;;;15.70;;
23555;SDS011;11956;53.184;8.578;2023-09-18T00:38:55;17.27;;;15.43;;
23555;SDS011;11956;53.184;8.578;2023-09-18T00:41:56;19.65;;;15.88;;
23555;SDS011;11956;53.184;8.578;2023-09-18T00:44:57;15.63;;;13.90;;
23555;SDS011;11956;53.184;8.578;2023-09-18T00:47:58;16.67;;;14.63;;
23555;SDS011;11956;53.184;8.578;2023-09-18T00:50:59;15.57;;;13.52;;
23555;SDS011;11956;53.184;8.578;2023-09-18T00:54:01;16.17;;;14.57;;
23555;SDS011;11956;53.184;8.578;2023-09-18T00:57:03;16.38;;;14.68;;
23555;SDS011;11956;53.184;8.578;2023-09-18T01:00:04;15.98;;;13.38;;
23555;SDS011;11956;53.184;8.578;2023-09-18T01:03:06;15.63;;;13.85;;
23555;SDS011;11956;53.184;8.578;2023-09-18T01:06:07;15.43;;;13.95;;
23555;SDS011;11956;53.184;8.578;2023-09-18T01:09:08;15.00;;;13.40;;
23555;SDS011;11956;53.184;8.578;2023-09-18T01:12:18;16.95;;;14.43;;
23555;SDS011;11956;53.184;8.578;2023-09-18T01:15:37;16.02;;;14.10;;
23555;SDS011;11956;53.184;8.578;2023-09-18T01:18:49;15.15;;;13.68;;
23555;SDS011;11956;53.184;8.578;2023-09-18T01:21:50;15.80;;;14.25;;
23555;SDS011;11956;53.184;8.578;2023-09-18T01:24:51;15.77;;;14.02;;
23555;SDS011;11956;53.184;8.578;2023-09-18T01:27:52;16.00;;;13.80;;
23555;SDS011;11956;53.184;8.578;2023-09-18T01:30:53;16.35;;;13.32;;
23555;SDS011;11956;53.184;8.578;2023-09-18T01:33:53;17.08;;;14.93;;
23555;SDS011;11956;53.184;8.578;2023-09-18T01:36:55;14.43;;;12.93;;
23555;SDS011;11956;53.184;8.578;2023-09-18T01:39:58;16.92;;;14.38;;
23555;SDS011;11956;53.184;8.578;2023-09-18T01:42:59;16.58;;;14.38;;
23555;SDS011;11956;53.184;8.578;2023-09-18T01:46:00;16.60;;;14.00;;
23555;SDS011;11956;53.184;8.578;2023-09-18T01:49:02;16.00;;;13.20;;
23555;SDS011;11956;53.184;8.578;2023-09-18T01:52:04;16.60;;;13.52;;
23555;SDS011;11956;53.184;8.578;2023-09-18T01:55:07;14.82;;;12.27;;
23555;SDS011;11956;53.184;8.578;2023-09-18T01:58:09;14.77;;;13.27;;
23555;SDS011;11956;53.184;8.578;2023-09-18T02:01:10;14.43;;;12.93;;
23555;SDS011;11956;53.184;8.578;2023-09-18T02:04:11;16.13;;;13.50;;
23555;SDS011;11956;53.184;8.578;2023-09-18T02:07:12;15.27;;;12.88;;
23555;SDS011;11956;53.184;8.578;2023-09-18T02:10:13;14.52;;;12.93;;
23555;SDS011;11956;53.184;8.578;2023-09-18T02:13:14;14.93;;;12.27;;
23555;SDS011;11956;53.184;8.578;2023-09-18T02:16:15;15.10;;;12.38;;
23555;SDS011;11956;53.184;8.578;2023-09-18T02:19:16;14.48;;;12.43;;
23555;SDS011;11956;53.184;8.578;2023-09-18T02:22:18;13.60;;;11.95;;
23555;SDS011;11956;53.184;8.578;2023-09-18T02:25:19;13.35;;;11.88;;
23555;SDS011;11956;53.184;8.578;2023-09-18T02:28:20;13.80;;;11.88;;
23555;SDS011;11956;53.184;8.578;2023-09-18T02:31:21;14.65;;;12.18;;
23555;SDS011;11956;53.184;8.578;2023-09-18T02:34:23;14.25;;;11.45;;
23555;SDS011;11956;53.184;8.578;2023-09-18T02:37:23;14.88;;;12.00;;
23555;SDS011;11956;53.184;8.578;2023-09-18T02:40:24;16.05;;;13.13;;
23555;SDS011;11956;53.184;8.578;2023-09-18T02:43:25;14.88;;;12.50;;
23555;SDS011;11956;53.184;8.578;2023-09-18T02:46:26;14.30;;;12.00;;
23555;SDS011;11956;53.184;8.578;2023-09-18T02:49:27;13.48;;;11.65;;
23555;SDS011;11956;53.184;8.578;2023-09-18T02:55:32;13.80;;;12.40;;
23555;SDS011;11956;53.184;8.578;2023-09-18T02:58:32;15.02;;;12.00;;
23555;SDS011;11956;53.184;8.578;2023-09-18T03:01:33;15.68;;;12.20;;
23555;SDS011;11956;53.184;8.578;2023-09-18T03:04:34;14.23;;;11.48;;
23555;SDS011;11956;53.184;8.578;2023-09-18T03:07:37;12.98;;;10.70;;
23555;SDS011;11956;53.184;8.578;2023-09-18T03:10:39;12.48;;;11.02;;
23555;SDS011;11956;53.184;8.578;2023-09-18T03:16:47;15.00;;;11.15;;
23555;SDS011;11956;53.184;8.578;2023-09-18T03:19:48;11.93;;;10.48;;
23555;SDS011;11956;53.184;8.578;2023-09-18T03:22:50;11.60;;;10.30;;
23555;SDS011;11956;53.184;8.578;2023-09-18T03:25:52;14.13;;;10.88;;
23555;SDS011;11956;53.184;8.578;2023-09-18T03:28:54;10.88;;;9.65;;
23555;SDS011;11956;53.184;8.578;2023-09-18T03:31:55;10.68;;;9.63;;
23555;SDS011;11956;53.184;8.578;2023-09-18T03:37:59;11.45;;;8.98;;
23555;SDS011;11956;53.184;8.578;2023-09-18T03:41:01;12.13;;;9.32;;
23555;SDS011;11956;53.184;8.578;2023-09-18T03:44:01;10.90;;;9.75;;
23555;SDS011;11956;53.184;8.578;2023-09-18T03:47:03;10.48;;;9.18;;
23555;SDS011;11956;53.184;8.578;2023-09-18T03:50:04;12.77;;;9.13;;
23555;SDS011;11956;53.184;8.578;2023-09-18T03:53:12;11.75;;;9.77;;
23555;SDS011;11956;53.184;8.578;2023-09-18T03:56:12;13.00;;;8.55;;
23555;SDS011;11956;53.184;8.578;2023-09-18T03:59:14;14.60;;;10.45;;
23555;SDS011;11956;53.184;8.578;2023-09-18T04:02:14;12.23;;;9.07;;
23555;SDS011;11956;53.184;8.578;2023-09-18T04:05:15;13.98;;;9.07;;
23555;SDS011;11956;53.184;8.578;2023-09-18T04:08:16;11.15;;;9.45;;
23555;SDS011;11956;53.184;8.578;2023-09-18T04:11:17;11.52;;;8.27;;
23555;SDS011;11956;53.184;8.578;2023-09-18T04:14:25;10.55;;;8.05;;
23555;SDS011;11956;53.184;8.578;2023-09-18T04:17:26;9.75;;;8.57;;
23555;SDS011;11956;53.184;8.578;2023-09-18T04:20:26;10.15;;;8.20;;
23555;SDS011;11956;53.184;8.578;2023-09-18T04:23:27;12.15;;;8.48;;
23555;SDS011;11956;53.184;8.578;2023-09-18T04:26:28;9.57;;;8.18;;
23555;SDS011;11956;53.184;8.578;2023-09-18T04:29:31;10.68;;;8.13;;
23555;SDS011;11956;53.184;8.578;2023-09-18T04:32:32;11.02;;;8.38;;
23555;SDS011;11956;53.184;8.578;2023-09-18T04:35:33;11.45;;;8.45;;
23555;SDS011;11956;53.184;8.578;2023-09-18T04:38:34;8.82;;;7.50;;
23555;SDS011;11956;53.184;8.578;2023-09-18T04:41:35;9.27;;;7.78;;
23555;SDS011;11956;53.184;8.578;2023-09-18T04:44:38;11.25;;;8.32;;
23555;SDS011;11956;53.184;8.578;2023-09-18T04:47:39;9.85;;;8.18;;
23555;SDS011;11956;53.184;8.578;2023-09-18T04:50:40;10.38;;;7.93;;
23555;SDS011;11956;53.184;8.578;2023-09-18T04:53:41;9.60;;;8.15;;
23555;SDS011;11956;53.184;8.578;2023-09-18T04:56:43;9.10;;;8.00;;
23555;SDS011;11956;53.184;8.578;2023-09-18T04:59:44;10.25;;;7.47;;
23555;SDS011;11956;53.184;8.578;2023-09-18T05:02:44;9.98;;;7.65;;
23555;SDS011;11956;53.184;8.578;2023-09-18T05:05:46;12.43;;;8.00;;
23555;SDS011;11956;53.184;8.578;2023-09-18T05:08:47;9.25;;;8.02;;
23555;SDS011;11956;53.184;8.578;2023-09-18T05:11:48;8.35;;;7.30;;
23555;SDS011;11956;53.184;8.578;2023-09-18T05:14:49;9.23;;;7.25;;
23555;SDS011;11956;53.184;8.578;2023-09-18T05:17:52;10.45;;;7.40;;
23555;SDS011;11956;53.184;8.578;2023-09-18T05:20:57;10.25;;;7.78;;
23555;SDS011;11956;53.184;8.578;2023-09-18T05:23:58;9.02;;;6.95;;
23555;SDS011;11956;53.184;8.578;2023-09-18T05:26:59;8.18;;;6.97;;
23555;SDS011;11956;53.184;8.578;2023-09-18T05:30:00;10.55;;;7.18;;
23555;SDS011;11956;53.184;8.578;2023-09-18T05:33:01;9.73;;;6.78;;
23555;SDS011;11956;53.184;8.578;2023-09-18T05:36:07;8.88;;;7.20;;
23555;SDS011;11956;53.184;8.578;2023-09-18T05:39:08;10.45;;;6.53;;
23555;SDS011;11956;53.184;8.578;2023-09-18T05:42:11;8.13;;;6.60;;
23555;SDS011;11956;53.184;8.578;2023-09-18T05:45:13;7.53;;;6.20;;
23555;SDS011;11956;53.184;8.578;2023-09-18T05:48:15;8.82;;;6.43;;
23555;SDS011;11956;53.184;8.578;2023-09-18T05:51:15;9.35;;;6.18;;
23555;SDS011;11956;53.184;8.578;2023-09-18T05:54:16;9.18;;;6.78;;
23555;SDS011;11956;53.184;8.578;2023-09-18T05:57:17;10.27;;;6.93;;
23555;SDS011;11956;53.184;8.578;2023-09-18T06:00:18;7.57;;;6.78;;
23555;SDS011;11956;53.184;8.578;2023-09-18T06:03:19;9.85;;;6.95;;
23555;SDS011;11956;53.184;8.578;2023-09-18T06:06:21;11.30;;;7.47;;
23555;SDS011;11956;53.184;8.578;2023-09-18T06:09:22;12.70;;;7.30;;
23555;SDS011;11956;53.184;8.578;2023-09-18T06:12:23;10.35;;;7.55;;
23555;SDS011;11956;53.184;8.578;2023-09-18T06:15:25;11.43;;;7.32;;
23555;SDS011;11956;53.184;8.578;2023-09-18T06:18:25;7.55;;;6.75;;
23555;SDS011;11956;53.184;8.578;2023-09-18T06:21:26;11.45;;;6.28;;
23555;SDS011;11956;53.184;8.578;2023-09-18T06:24:28;9.15;;;6.35;;
23555;SDS011;11956;53.184;8.578;2023-09-18T06:27:29;11.10;;;6.72;;
23555;SDS011;11956;53.184;8.578;2023-09-18T06:30:33;7.85;;;6.75;;
23555;SDS011;11956;53.184;8.578;2023-09-18T06:33:36;10.73;;;6.75;;
23555;SDS011;11956;53.184;8.578;2023-09-18T06:36:37;9.68;;;7.28;;
23555;SDS011;11956;53.184;8.578;2023-09-18T06:39:38;10.60;;;7.32;;
23555;SDS011;11956;53.184;8.578;2023-09-18T06:42:39;12.43;;;7.78;;
23555;SDS011;11956;53.184;8.578;2023-09-18T06:45:41;11.15;;;6.93;;
23555;SDS011;11956;53.184;8.578;2023-09-18T06:48:42;9.23;;;6.10;;
23555;SDS011;11956;53.184;8.578;2023-09-18T06:51:45;7.40;;;6.57;;
23555;SDS011;11956;53.184;8.578;2023-09-18T06:54:46;8.20;;;6.15;;
23555;SDS011;11956;53.184;8.578;2023-09-18T06:57:47;8.93;;;5.88;;
23555;SDS011;11956;53.184;8.578;2023-09-18T07:00:50;8.73;;;6.00;;
23555;SDS011;11956;53.184;8.578;2023-09-18T07:03:51;9.65;;;6.85;;
23555;SDS011;11956;53.184;8.578;2023-09-18T07:06:52;10.40;;;7.30;;
23555;SDS011;11956;53.184;8.578;2023-09-18T07:09:53;11.48;;;8.27;;
23555;SDS011;11956;53.184;8.578;2023-09-18T07:12:54;8.90;;;8.00;;
23555;SDS011;11956;53.184;8.578;2023-09-18T07:15:56;11.00;;;8.30;;
23555;SDS011;11956;53.184;8.578;2023-09-18T07:18:57;10.23;;;8.93;;
23555;SDS011;11956;53.184;8.578;2023-09-18T07:21:58;10.95;;;8.70;;
23555;SDS011;11956;53.184;8.578;2023-09-18T07:24:59;11.80;;;8.98;;
23555;SDS011;11956;53.184;8.578;2023-09-18T07:28:00;11.32;;;8.68;;
23555;SDS011;11956;53.184;8.578;2023-09-18T07:34:28;8.35;;;7.10;;
23555;SDS011;11956;53.184;8.578;2023-09-18T07:37:29;10.73;;;8.00;;
23555;SDS011;11956;53.184;8.578;2023-09-18T07:40:30;10.32;;;7.78;;
23555;SDS011;11956;53.184;8.578;2023-09-18T07:43:31;10.32;;;8.00;;
23555;SDS011;11956;53.184;8.578;2023-09-18T07:46:32;10.70;;;8.35;;
23555;SDS011;11956;53.184;8.578;2023-09-18T07:49:33;9.65;;;7.78;;
23555;SDS011;11956;53.184;8.578;2023-09-18T07:52:34;10.95;;;7.93;;
23555;SDS011;11956;53.184;8.578;2023-09-18T07:55:35;12.65;;;8.60;;
23555;SDS011;11956;53.184;8.578;2023-09-18T07:58:37;9.05;;;7.45;;
23555;SDS011;11956;53.184;8.578;2023-09-18T08:01:38;9.10;;;7.57;;
23555;SDS011;11956;53.184;8.578;2023-09-18T08:04:39;12.45;;;7.75;;
23555;SDS011;11956;53.184;8.578;2023-09-18T08:07:44;8.60;;;7.57;;
23555;SDS011;11956;53.184;8.578;2023-09-18T08:10:47;10.05;;;7.55;;
23555;SDS011;11956;53.184;8.578;2023-09-18T08:13:48;10.48;;;7.63;;
23555;SDS011;11956;53.184;8.578;2023-09-18T08:16:55;9.55;;;7.63;;
23555;SDS011;11956;53.184;8.578;2023-09-18T08:19:57;11.27;;;7.30;;
23555;SDS011;11956;53.184;8.578;2023-09-18T08:22:59;8.05;;;6.72;;
23555;SDS011;11956;53.184;8.578;2023-09-18T08:26:03;9.15;;;6.60;;
23555;SDS011;11956;53.184;8.578;2023-09-18T08:29:04;9.88;;;6.40;;
23555;SDS011;11956;53.184;8.578;2023-09-18T08:32:05;11.20;;;6.30;;
23555;SDS011;11956;53.184;8.578;2023-09-18T08:35:06;10.88;;;6.32;;
23555;SDS011;11956;53.184;8.578;2023-09-18T08:38:08;7.30;;;6.22;;
23555;SDS011;11956;53.184;8.578;2023-09-18T08:41:09;8.80;;;5.50;;
23555;SDS011;11956;53.184;8.578;2023-09-18T08:44:13;9.80;;;5.40;;
23555;SDS011;11956;53.184;8.578;2023-09-18T08:47:14;7.47;;;5.00;;
23555;SDS011;11956;53.184;8.578;2023-09-18T08:50:17;6.45;;;4.55;;
23555;SDS011;11956;53.184;8.578;2023-09-18T08:53:18;8.43;;;4.78;;
23555;SDS011;11956;53.184;8.578;2023-09-18T08:56:19;8.10;;;4.93;;
23555;SDS011;11956;53.184;8.578;2023-09-18T08:59:22;10.60;;;5.28;;
23555;SDS011;11956;53.184;8.578;2023-09-18T09:02:25;7.03;;;5.00;;
23555;SDS011;11956;53.184;8.578;2023-09-18T09:05:26;8.43;;;4.63;;
23555;SDS011;11956;53.184;8.578;2023-09-18T09:08:28;8.05;;;4.57;;
23555;SDS011;11956;53.184;8.578;2023-09-18T09:11:29;6.43;;;3.97;;
23555;SDS011;11956;53.184;8.578;2023-09-18T09:14:30;7.97;;;4.03;;
23555;SDS011;11956;53.184;8.578;2023-09-18T09:17:31;6.72;;;3.85;;
23555;SDS011;11956;53.184;8.578;2023-09-18T09:20:32;11.30;;;3.78;;
23555;SDS011;11956;53.184;8.578;2023-09-18T09:23:45;9.63;;;4.03;;
23555;SDS011;11956;53.184;8.578;2023-09-18T09:26:56;12.32;;;4.40;;
23555;SDS011;11956;53.184;8.578;2023-09-18T09:30:03;6.85;;;4.15;;
23555;SDS011;11956;53.184;8.578;2023-09-18T09:33:05;8.40;;;4.10;;
23555;SDS011;11956;53.184;8.578;2023-09-18T09:39:08;9.23;;;3.95;;
23555;SDS011;11956;53.184;8.578;2023-09-18T09:42:11;9.87;;;4.07;;
23555;SDS011;11956;53.184;8.578;2023-09-18T09:45:13;10.77;;;3.97;;
23555;SDS011;11956;53.184;8.578;2023-09-18T09:48:18;8.55;;;3.90;;
23555;SDS011;11956;53.184;8.578;2023-09-18T09:51:20;9.68;;;3.92;;
23555;SDS011;11956;53.184;8.578;2023-09-18T09:54:34;12.98;;;3.80;;
23555;SDS011;11956;53.184;8.578;2023-09-18T09:57:46;11.30;;;4.07;;
23555;SDS011;11956;53.184;8.578;2023-09-18T10:00:51;8.07;;;3.78;;
23555;SDS011;11956;53.184;8.578;2023-09-18T10:03:59;14.40;;;6.82;;
23555;SDS011;11956;53.184;8.578;2023-09-18T10:07:07;10.13;;;3.72;;
23555;SDS011;11956;53.184;8.578;2023-09-18T10:10:10;11.05;;;3.58;;
23555;SDS011;11956;53.184;8.578;2023-09-18T10:13:18;8.95;;;3.67;;
23555;SDS011;11956;53.184;8.578;2023-09-18T10:16:37;13.13;;;4.82;;
23555;SDS011;11956;53.184;8.578;2023-09-18T10:23:21;9.27;;;3.65;;
23555;SDS011;11956;53.184;8.578;2023-09-18T10:26:35;7.43;;;3.42;;
23555;SDS011;11956;53.184;8.578;2023-09-18T10:29:47;10.07;;;3.43;;
23555;SDS011;11956;53.184;8.578;2023-09-18T10:32:52;8.20;;;3.38;;
23555;SDS011;11956;53.184;8.578;2023-09-18T10:35:53;8.50;;;3.63;;
23555;SDS011;11956;53.184;8.578;2023-09-18T10:38:57;11.15;;;3.45;;
23555;SDS011;11956;53.184;8.578;2023-09-18T10:42:00;10.80;;;3.65;;
23555;SDS011;11956;53.184;8.578;2023-09-18T10:45:04;11.60;;;4.10;;
23555;SDS011;11956;53.184;8.578;2023-09-18T10:48:06;9.70;;;3.60;;
23555;SDS011;11956;53.184;8.578;2023-09-18T10:51:09;7.10;;;3.50;;
23555;SDS011;11956;53.184;8.578;2023-09-18T10:54:14;6.15;;;3.35;;
23555;SDS011;11956;53.184;8.578;2023-09-18T10:57:16;7.38;;;3.58;;
23555;SDS011;11956;53.184;8.578;2023-09-18T11:00:17;10.32;;;3.67;;
23555;SDS011;11956;53.184;8.578;2023-09-18T11:03:22;6.72;;;3.70;;
23555;SDS011;11956;53.184;8.578;2023-09-18T11:06:24;6.90;;;3.53;;
23555;SDS011;11956;53.184;8.578;2023-09-18T11:09:27;7.82;;;3.50;;
23555;SDS011;11956;53.184;8.578;2023-09-18T11:12:49;6.70;;;3.22;;
23555;SDS011;11956;53.184;8.578;2023-09-18T11:15:50;7.18;;;3.15;;
23555;SDS011;11956;53.184;8.578;2023-09-18T11:18:54;9.00;;;3.80;;
23555;SDS011;11956;53.184;8.578;2023-09-18T11:22:08;9.77;;;5.28;;
23555;SDS011;11956;53.184;8.578;2023-09-18T11:25:29;7.18;;;3.58;;
23555;SDS011;11956;53.184;8.578;2023-09-18T11:28:39;8.82;;;3.70;;
23555;SDS011;11956;53.184;8.578;2023-09-18T11:34:50;5.78;;;2.92;;
23555;SDS011;11956;53.184;8.578;2023-09-18T11:38:08;10.57;;;3.70;;
23555;SDS011;11956;53.184;8.578;2023-09-18T11:41:27;11.13;;;3.42;;
23555;SDS011;11956;53.184;8.578;2023-09-18T11:47:30;5.28;;;2.92;;
23555;SDS011;11956;53.184;8.578;2023-09-18T11:50:32;6.22;;;2.70;;
23555;SDS011;11956;53.184;8.578;2023-09-18T11:53:35;7.53;;;2.33;;
23555;SDS011;11956;53.184;8.578;2023-09-18T11:56:40;6.30;;;3.17;;
23555;SDS011;11956;53.184;8.578;2023-09-18T11:59:42;6.18;;;2.95;;
23555;SDS011;11956;53.184;8.578;2023-09-18T12:02:43;6.97;;;3.10;;
23555;SDS011;11956;53.184;8.578;2023-09-18T12:05:46;4.20;;;3.00;;
23555;SDS011;11956;53.184;8.578;2023-09-18T12:08:50;9.32;;;2.88;;
23555;SDS011;11956;53.184;8.578;2023-09-18T12:11:55;6.45;;;2.50;;
23555;SDS011;11956;53.184;8.578;2023-09-18T12:14:58;5.55;;;2.67;;
23555;SDS011;11956;53.184;8.578;2023-09-18T12:18:11;3.72;;;2.03;;
23555;SDS011;11956;53.184;8.578;2023-09-18T12:21:15;5.25;;;2.03;;
23555;SDS011;11956;53.184;8.578;2023-09-18T12:24:21;3.85;;;2.30;;
23555;SDS011;11956;53.184;8.578;2023-09-18T12:27:23;3.60;;;2.05;;
23555;SDS011;11956;53.184;8.578;2023-09-18T12:30:27;5.93;;;1.88;;
23555;SDS011;11956;53.184;8.578;2023-09-18T12:33:29;3.70;;;1.73;;
23555;SDS011;11956;53.184;8.578;2023-09-18T12:36:31;3.13;;;1.70;;
23555;SDS011;11956;53.184;8.578;2023-09-18T12:39:33;3.20;;;1.80;;
23555;SDS011;11956;53.184;8.578;2023-09-18T12:42:34;3.55;;;1.70;;
23555;SDS011;11956;53.184;8.578;2023-09-18T12:45:41;5.10;;;1.58;;
23555;SDS011;11956;53.184;8.578;2023-09-18T12:48:43;4.22;;;1.58;;
23555;SDS011;11956;53.184;8.578;2023-09-18T12:51:57;5.03;;;1.77;;
23555;SDS011;11956;53.184;8.578;2023-09-18T12:54:59;5.38;;;2.03;;
23555;SDS011;11956;53.184;8.578;2023-09-18T12:58:03;5.80;;;1.77;;
23555;SDS011;11956;53.184;8.578;2023-09-18T13:01:08;4.97;;;2.10;;
23555;SDS011;11956;53.184;8.578;2023-09-18T13:04:11;5.15;;;2.55;;
23555;SDS011;11956;53.184;8.578;2023-09-18T13:07:13;3.75;;;1.67;;
23555;SDS011;11956;53.184;8.578;2023-09-18T13:10:14;5.47;;;1.77;;
23555;SDS011;11956;53.184;8.578;2023-09-18T13:13:19;3.92;;;1.52;;
23555;SDS011;11956;53.184;8.578;2023-09-18T13:16:22;5.65;;;1.73;;
23555;SDS011;11956;53.184;8.578;2023-09-18T13:19:23;5.25;;;1.45;;
23555;SDS011;11956;53.184;8.578;2023-09-18T13:22:25;4.10;;;1.60;;
23555;SDS011;11956;53.184;8.578;2023-09-18T13:25:28;5.70;;;1.80;;
23555;SDS011;11956;53.184;8.578;2023-09-18T13:28:34;5.57;;;1.90;;
23555;SDS011;11956;53.184;8.578;2023-09-18T13:31:36;4.50;;;1.80;;
23555;SDS011;11956;53.184;8.578;2023-09-18T13:34:37;4.03;;;1.55;;
23555;SDS011;11956;53.184;8.578;2023-09-18T13:37:39;5.32;;;1.90;;
23555;SDS011;11956;53.184;8.578;2023-09-18T13:40:41;3.42;;;1.45;;
23555;SDS011;11956;53.184;8.578;2023-09-18T13:43:42;9.43;;;2.13;;
23555;SDS011;11956;53.184;8.578;2023-09-18T13:46:45;3.85;;;1.33;;
23555;SDS011;11956;53.184;8.578;2023-09-18T13:49:46;3.10;;;1.40;;
23555;SDS011;11956;53.184;8.578;2023-09-18T13:52:47;2.47;;;1.33;;
23555;SDS011;11956;53.184;8.578;2023-09-18T13:55:47;3.25;;;1.50;;
23555;SDS011;11956;53.184;8.578;2023-09-18T13:58:48;3.50;;;1.35;;
23555;SDS011;11956;53.184;8.578;2023-09-18T14:01:49;3.10;;;1.30;;
23555;SDS011;11956;53.184;8.578;2023-09-18T14:04:52;4.15;;;1.60;;
23555;SDS011;11956;53.184;8.578;2023-09-18T14:07:54;2.97;;;1.50;;
23555;SDS011;11956;53.184;8.578;2023-09-18T14:10:59;3.78;;;1.58;;
23555;SDS011;11956;53.184;8.578;2023-09-18T14:14:00;4.55;;;1.38;;
23555;SDS011;11956;53.184;8.578;2023-09-18T14:17:02;2.08;;;1.45;;
23555;SDS011;11956;53.184;8.578;2023-09-18T14:20:04;8.07;;;2.08;;
23555;SDS011;11956;53.184;8.578;2023-09-18T14:23:09;3.90;;;1.65;;
23555;SDS011;11956;53.184;8.578;2023-09-18T14:26:10;3.40;;;1.63;;
23555;SDS011;11956;53.184;8.578;2023-09-18T14:29:11;4.07;;;1.77;;
23555;SDS011;11956;53.184;8.578;2023-09-18T14:32:12;3.40;;;1.23;;
23555;SDS011;11956;53.184;8.578;2023-09-18T14:35:12;2.75;;;1.52;;
23555;SDS011;11956;53.184;8.578;2023-09-18T14:38:14;3.10;;;1.70;;
23555;SDS011;11956;53.184;8.578;2023-09-18T14:41:15;3.15;;;1.80;;
23555;SDS011;11956;53.184;8.578;2023-09-18T14:44:18;6.45;;;1.85;;
23555;SDS011;11956;53.184;8.578;2023-09-18T14:47:19;5.93;;;2.05;;
23555;SDS011;11956;53.184;8.578;2023-09-18T14:50:19;6.20;;;1.98;;
23555;SDS011;11956;53.184;8.578;2023-09-18T14:53:21;3.90;;;1.60;;
23555;SDS011;11956;53.184;8.578;2023-09-18T14:56:21;2.67;;;1.77;;
23555;SDS011;11956;53.184;8.578;2023-09-18T14:59:22;4.43;;;1.85;;
23555;SDS011;11956;53.184;8.578;2023-09-18T15:02:23;4.82;;;1.70;;
23555;SDS011;11956;53.184;8.578;2023-09-18T15:05:29;7.03;;;2.13;;
23555;SDS011;11956;53.184;8.578;2023-09-18T15:08:30;4.97;;;2.00;;
23555;SDS011;11956;53.184;8.578;2023-09-18T15:11:31;3.08;;;2.03;;
23555;SDS011;11956;53.184;8.578;2023-09-18T15:14:32;4.53;;;1.80;;
23555;SDS011;11956;53.184;8.578;2023-09-18T15:17:33;2.42;;;1.70;;
23555;SDS011;11956;53.184;8.578;2023-09-18T15:20:33;4.55;;;1.63;;
23555;SDS011;11956;53.184;8.578;2023-09-18T15:23:35;6.70;;;2.40;;
23555;SDS011;11956;53.184;8.578;2023-09-18T15:26:36;4.07;;;2.30;;
23555;SDS011;11956;53.184;8.578;2023-09-18T15:29:36;14.02;;;5.70;;
23555;SDS011;11956;53.184;8.578;2023-09-18T15:32:48;11.88;;;4.75;;
23555;SDS011;11956;53.184;8.578;2023-09-18T15:35:54;9.02;;;3.60;;
23555;SDS011;11956;53.184;8.578;2023-09-18T15:38:55;9.55;;;4.00;;
23555;SDS011;11956;53.184;8.578;2023-09-18T15:41:56;11.30;;;3.97;;
23555;SDS011;11956;53.184;8.578;2023-09-18T15:44:57;6.40;;;3.25;;
23555;SDS011;11956;53.184;8.578;2023-09-18T15:47:58;8.63;;;3.58;;
23555;SDS011;11956;53.184;8.578;2023-09-18T15:50:59;6.63;;;3.88;;
23555;SDS011;11956;53.184;8.578;2023-09-18T15:53:59;9.77;;;5.00;;
23555;SDS011;11956;53.184;8.578;2023-09-18T15:57:00;6.28;;;4.80;;
23555;SDS011;11956;53.184;8.578;2023-09-18T16:00:05;8.90;;;5.28;;
23555;SDS011;11956;53.184;8.578;2023-09-18T16:03:12;7.25;;;4.38;;
23555;SDS011;11956;53.184;8.578;2023-09-18T16:06:16;7.15;;;5.10;;
23555;SDS011;11956;53.184;8.578;2023-09-18T16:09:20;5.15;;;4.53;;
23555;SDS011;11956;53.184;8.578;2023-09-18T16:12:23;9.00;;;6.80;;
23555;SDS011;11956;53.184;8.578;2023-09-18T16:15:24;8.90;;;4.88;;
23555;SDS011;11956;53.184;8.578;2023-09-18T16:18:27;5.78;;;3.50;;
23555;SDS011;11956;53.184;8.578;2023-09-18T16:21:28;3.88;;;3.15;;
23555;SDS011;11956;53.184;8.578;2023-09-18T16:24:30;6.72;;;2.97;;
23555;SDS011;11956;53.184;8.578;2023-09-18T16:27:31;4.13;;;2.60;;
23555;SDS011;11956;53.184;8.578;2023-09-18T16:30:32;5.82;;;3.13;;
23555;SDS011;11956;53.184;8.578;2023-09-18T16:33:34;5.10;;;3.47;;
23555;SDS011;11956;53.184;8.578;2023-09-18T16:36:35;3.80;;;2.53;;
23555;SDS011;11956;53.184;8.578;2023-09-18T16:39:36;3.75;;;2.55;;
23555;SDS011;11956;53.184;8.578;2023-09-18T16:42:37;6.32;;;2.72;;
23555;SDS011;11956;53.184;8.578;2023-09-18T16:45:37;6.72;;;2.95;;
23555;SDS011;11956;53.184;8.578;2023-09-18T16:48:40;5.00;;;3.22;;
23555;SDS011;11956;53.184;8.578;2023-09-18T16:51:40;6.03;;;3.15;;
23555;SDS011;11956;53.184;8.578;2023-09-18T16:54:44;5.93;;;3.47;;
23555;SDS011;11956;53.184;8.578;2023-09-18T16:57:45;5.15;;;2.90;;
23555;SDS011;11956;53.184;8.578;2023-09-18T17:00:47;6.53;;;3.28;;
23555;SDS011;11956;53.184;8.578;2023-09-18T17:03:48;5.93;;;2.80;;
23555;SDS011;11956;53.184;8.578;2023-09-18T17:06:48;6.75;;;4.75;;
23555;SDS011;11956;53.184;8.578;2023-09-18T17:09:49;5.40;;;4.22;;
23555;SDS011;11956;53.184;8.578;2023-09-18T17:12:50;5.63;;;3.40;;
23555;SDS011;11956;53.184;8.578;2023-09-18T17:15:51;5.57;;;3.83;;
23555;SDS011;11956;53.184;8.578;2023-09-18T17:18:52;4.53;;;2.80;;
23555;SDS011;11956;53.184;8.578;2023-09-18T17:21:56;4.72;;;4.10;;
23555;SDS011;11956;53.184;8.578;2023-09-18T17:25:00;5.10;;;3.47;;
23555;SDS011;11956;53.184;8.578;2023-09-18T17:28:01;4.47;;;3.60;;
23555;SDS011;11956;53.184;8.578;2023-09-18T17:31:05;4.18;;;3.20;;
23555;SDS011;11956;53.184;8.578;2023-09-18T17:34:06;5.05;;;3.20;;
23555;SDS011;11956;53.184;8.578;2023-09-18T17:37:07;5.80;;;3.42;;
23555;SDS011;11956;53.184;8.578;2023-09-18T17:40:08;8.32;;;3.78;;
23555;SDS011;11956;53.184;8.578;2023-09-18T17:43:10;5.22;;;4.40;;
23555;SDS011;11956;53.184;8.578;2023-09-18T17:46:10;4.00;;;3.60;;
23555;SDS011;11956;53.184;8.578;2023-09-18T17:49:11;3.95;;;2.95;;
23555;SDS011;11956;53.184;8.578;2023-09-18T17:52:13;4.07;;;3.67;;
23555;SDS011;11956;53.184;8.578;2023-09-18T17:55:16;8.23;;;4.72;;
23555;SDS011;11956;53.184;8.578;2023-09-18T17:58:17;6.18;;;4.90;;
23555;SDS011;11956;53.184;8.578;2023-09-18T18:01:18;5.38;;;4.88;;
23555;SDS011;11956;53.184;8.578;2023-09-18T18:04:19;7.82;;;6.97;;
23555;SDS011;11956;53.184;8.578;2023-09-18T18:07:20;12.85;;;7.45;;
23555;SDS011;11956;53.184;8.578;2023-09-18T18:10:20;8.43;;;7.22;;
23555;SDS011;11956;53.184;8.578;2023-09-18T18:13:21;6.47;;;5.47;;
23555;SDS011;11956;53.184;8.578;2023-09-18T18:16:23;8.15;;;6.07;;
23555;SDS011;11956;53.184;8.578;2023-09-18T18:19:24;8.15;;;5.80;;
23555;SDS011;11956;53.184;8.578;2023-09-18T18:22:25;9.13;;;5.80;;
23555;SDS011;11956;53.184;8.578;2023-09-18T18:25:26;9.07;;;5.53;;
23555;SDS011;11956;53.184;8.578;2023-09-18T18:28:27;9.63;;;5.38;;
23555;SDS011;11956;53.184;8.578;2023-09-18T18:31:28;8.63;;;5.32;;
23555;SDS011;11956;53.184;8.578;2023-09-18T18:34:32;7.40;;;4.72;;
23555;SDS011;11956;53.184;8.578;2023-09-18T18:37:33;9.82;;;5.47;;